createdAt,value
2018-08-14T00:04:43.327Z,4.60
2018-08-14T00:09:47.552Z,8.00
2018-08-14T00:14:51.575Z,5.87
2018-08-14T00:19:55.581Z,3.27
2018-08-14T00:24:59.531Z,8.73
2018-08-14T00:30:04.445Z,7.60
2018-08-14T00:35:08.717Z,8.40
2018-08-14T00:40:16.610Z,16.77
2018-08-14T00:45:21.303Z,3.67
2018-08-14T00:50:25.280Z,7.43
2018-08-14T00:55:29.307Z,10.50
2018-08-14T01:00:34.522Z,13.43
2018-08-14T01:05:38.502Z,10.77
2018-08-14T01:10:42.492Z,11.97
2018-08-14T01:15:46.482Z,16.13
2018-08-14T01:20:51.599Z,10.27
2018-08-14T01:25:55.586Z,9.63
2018-08-14T01:30:59.595Z,13.80
2018-08-14T01:36:03.611Z,17.97
2018-08-14T01:41:07.655Z,13.33
2018-08-14T01:46:11.670Z,15.13
2018-08-14T01:51:15.644Z,14.53
2018-08-14T01:56:19.642Z,19.10
2018-08-14T02:01:23.643Z,22.73
2018-08-14T02:06:27.688Z,13.63
2018-08-14T02:11:31.697Z,26.03
2018-08-14T02:16:35.738Z,22.70
2018-08-14T02:21:39.723Z,20.40
2018-08-14T02:26:43.792Z,18.90
2018-08-14T02:31:47.770Z,24.90
2018-08-14T02:36:51.818Z,29.90
2018-08-14T02:41:55.864Z,18.03
2018-08-14T02:46:59.871Z,21.43
2018-08-14T02:52:05.033Z,15.50
2018-08-14T02:57:09.009Z,23.63
2018-08-14T03:02:12.980Z,18.73
2018-08-14T03:07:16.979Z,21.07
2018-08-14T03:12:20.947Z,20.10
2018-08-14T03:17:25.517Z,20.23
2018-08-14T03:22:29.545Z,15.23
2018-08-14T03:27:33.535Z,20.97
2018-08-14T03:32:37.600Z,16.53
2018-08-14T03:37:41.710Z,21.40
2018-08-14T03:42:46.564Z,29.13
2018-08-14T03:47:50.545Z,22.63
2018-08-14T03:52:55.401Z,21.70
2018-08-14T03:57:59.499Z,23.63
2018-08-14T04:03:03.495Z,17.60
2018-08-14T04:08:07.545Z,14.67
2018-08-14T04:13:11.542Z,14.23
2018-08-14T04:18:15.683Z,19.77
2018-08-14T04:23:19.654Z,18.23
2018-08-14T04:28:23.634Z,15.23
2018-08-14T04:33:27.739Z,23.37
2018-08-14T04:38:32.028Z,27.07
2018-08-14T04:43:36.035Z,28.17
2018-08-14T04:48:40.010Z,30.17
2018-08-14T04:53:43.978Z,19.13
2018-08-14T04:58:47.958Z,26.77
2018-08-14T05:03:51.946Z,25.97
2018-08-14T05:08:55.959Z,26.50
2018-08-14T05:13:59.951Z,23.03
2018-08-14T05:19:04.008Z,30.23
2018-08-14T05:24:08.024Z,17.90
2018-08-14T05:36:32.352Z,26.27
2018-08-14T05:41:36.463Z,18.50
2018-08-14T05:46:40.471Z,20.70
2018-08-14T05:51:45.348Z,18.20
2018-08-14T05:56:49.333Z,19.57
2018-08-14T06:01:53.447Z,16.20
2018-08-14T06:06:57.432Z,20.53
2018-08-14T06:12:01.464Z,15.10
2018-08-14T06:17:05.664Z,14.73
2018-08-14T06:22:09.607Z,17.63
2018-08-14T06:27:13.607Z,19.30
2018-08-14T06:32:17.602Z,19.43
2018-08-14T06:37:22.000Z,17.33
2018-08-14T06:42:26.014Z,22.13
2018-08-14T06:47:30.791Z,16.47
2018-08-14T06:52:35.104Z,33.17
2018-08-14T06:57:40.392Z,23.50
2018-08-14T07:02:44.889Z,20.27
2018-08-14T07:07:48.875Z,27.20
2018-08-14T07:12:52.908Z,17.13
2018-08-14T07:17:56.865Z,22.17
2018-08-14T07:23:00.839Z,19.17
2018-08-14T07:28:04.887Z,21.13
2018-08-14T07:33:09.033Z,17.23
2018-08-14T07:38:13.015Z,20.13
2018-08-14T07:43:17.081Z,19.37
2018-08-14T07:48:21.083Z,23.53
2018-08-14T07:53:25.088Z,18.53
2018-08-14T07:58:29.095Z,13.77
2018-08-14T08:03:33.109Z,20.00
2018-08-14T08:08:37.218Z,18.43
2018-08-14T08:13:41.179Z,17.20
2018-08-14T08:18:45.167Z,15.77
2018-08-14T08:23:49.167Z,14.17
2018-08-14T08:28:53.142Z,9.97
2018-08-14T08:33:57.142Z,13.27
2018-08-14T08:39:01.149Z,7.83
2018-08-14T08:44:05.966Z,9.13
2018-08-14T08:49:09.990Z,8.17
2018-08-14T08:54:13.971Z,10.17
2018-08-14T08:59:18.726Z,8.87
2018-08-14T09:04:22.763Z,7.40
2018-08-14T09:09:26.737Z,5.80
2018-08-14T09:14:30.727Z,8.17
2018-08-14T09:19:34.743Z,5.10
2018-08-14T09:24:38.697Z,6.73
2018-08-14T09:29:42.737Z,8.90
2018-08-14T09:34:46.727Z,6.30
2018-08-14T09:39:50.913Z,6.17
2018-08-14T09:44:55.003Z,5.47
2018-08-14T09:49:58.982Z,6.43
2018-08-14T09:55:02.967Z,3.07
2018-08-14T10:00:15.318Z,3.90
2018-08-14T10:05:24.716Z,5.07
2018-08-14T10:10:28.830Z,6.93
2018-08-14T10:15:32.806Z,4.97
2018-08-14T10:20:36.780Z,4.70
2018-08-14T10:25:40.764Z,5.87
2018-08-14T10:30:45.587Z,3.30
2018-08-14T10:35:49.583Z,4.67
2018-08-14T10:40:53.561Z,5.90
2018-08-14T10:45:57.967Z,3.10
2018-08-14T10:51:01.903Z,4.90
2018-08-14T10:56:05.870Z,5.07
2018-08-14T11:01:09.891Z,7.60
2018-08-14T11:06:13.866Z,5.57
2018-08-14T11:11:19.280Z,3.60
2018-08-14T11:16:23.310Z,4.67
2018-08-14T11:21:27.318Z,4.10
2018-08-14T11:26:32.220Z,3.33
2018-08-14T11:31:36.231Z,7.27
2018-08-14T11:36:40.245Z,4.40
2018-08-14T11:41:44.351Z,3.77
2018-08-14T11:46:48.472Z,2.87
2018-08-14T11:51:52.447Z,2.93
2018-08-14T11:56:56.392Z,3.70
2018-08-14T12:02:00.437Z,3.27
2018-08-14T12:07:04.495Z,3.67
2018-08-14T12:12:08.449Z,3.97
2018-08-14T12:17:12.373Z,4.07
2018-08-14T12:22:16.363Z,3.27
2018-08-14T12:27:20.431Z,4.43
2018-08-14T12:32:24.372Z,3.27
2018-08-14T12:37:28.346Z,3.83
2018-08-14T12:42:32.343Z,5.47
2018-08-14T12:47:36.432Z,3.53
2018-08-14T12:52:40.498Z,6.60
2018-08-14T12:57:45.267Z,6.23
2018-08-14T13:02:49.578Z,5.03
2018-08-14T13:07:53.817Z,3.53
2018-08-14T13:12:57.802Z,6.03
2018-08-14T13:18:09.047Z,4.17
2018-08-14T13:23:14.392Z,1.40
2018-08-14T13:28:18.356Z,6.67
2018-08-14T13:33:22.374Z,2.90
2018-08-14T13:38:26.343Z,5.33
2018-08-14T13:43:30.326Z,4.77
2018-08-14T13:48:34.351Z,2.53
2018-08-14T13:53:38.393Z,3.83
2018-08-14T13:58:42.371Z,1.97
2018-08-14T14:03:46.359Z,5.40
2018-08-14T14:08:50.343Z,3.33
2018-08-14T14:13:54.340Z,3.43
2018-08-14T14:18:58.307Z,4.33
2018-08-14T14:24:02.359Z,2.50
2018-08-14T14:29:06.323Z,5.63
2018-08-14T14:34:10.310Z,5.40
2018-08-14T14:39:14.302Z,2.40
2018-08-14T14:44:18.346Z,1.80
2018-08-14T14:49:22.410Z,2.80
2018-08-14T14:54:27.026Z,4.40
2018-08-14T14:59:30.979Z,4.37
2018-08-14T15:04:35.411Z,5.50
2018-08-14T15:09:39.430Z,3.43
2018-08-14T15:14:43.383Z,3.03
2018-08-14T15:19:47.408Z,2.73
2018-08-14T15:24:51.383Z,3.37
2018-08-14T15:30:00.986Z,4.03
2018-08-14T15:35:04.995Z,4.17
2018-08-14T15:40:08.969Z,2.90
2018-08-14T15:45:12.962Z,3.17
2018-08-14T15:50:16.932Z,5.93
2018-08-14T15:55:20.916Z,3.97
2018-08-14T16:00:24.900Z,2.63
2018-08-14T16:05:28.899Z,4.10
2018-08-14T16:10:32.884Z,5.87
2018-08-14T16:15:36.871Z,4.13
2018-08-14T16:20:41.018Z,3.83
2018-08-14T16:25:44.963Z,2.17
2018-08-14T16:30:48.955Z,2.03
2018-08-14T16:35:52.931Z,2.17
2018-08-14T16:40:56.961Z,2.23
2018-08-14T16:46:00.942Z,4.77
2018-08-14T16:51:04.930Z,4.13
2018-08-14T16:56:08.923Z,2.87
2018-08-14T17:01:12.918Z,4.13
2018-08-14T17:06:19.197Z,4.60
2018-08-14T17:11:23.175Z,3.03
2018-08-14T17:16:27.298Z,4.17
2018-08-14T17:21:30.319Z,5.30
2018-08-14T17:26:34.332Z,3.03
2018-08-14T17:31:39.114Z,3.97
2018-08-14T17:36:43.060Z,2.83
2018-08-14T17:41:47.051Z,2.67
2018-08-14T17:46:51.083Z,4.83
2018-08-14T17:51:55.157Z,4.73
2018-08-14T17:56:59.127Z,3.87
2018-08-14T18:02:03.257Z,3.00
2018-08-14T18:07:07.296Z,4.03
2018-08-14T18:12:11.287Z,3.13
2018-08-14T18:17:15.285Z,3.57
2018-08-14T18:22:19.262Z,4.13
2018-08-14T18:27:23.260Z,3.47
2018-08-14T18:32:27.788Z,5.87
2018-08-14T18:37:31.835Z,3.40
2018-08-14T18:42:35.819Z,4.30
2018-08-14T18:47:39.969Z,3.37
2018-08-14T18:52:43.990Z,5.43
2018-08-14T18:57:48.903Z,3.17
2018-08-14T19:02:53.786Z,6.20
2018-08-14T19:07:57.760Z,3.60
2018-08-14T19:13:01.789Z,4.63
2018-08-14T19:18:06.851Z,2.80
2018-08-14T19:23:10.900Z,2.33
2018-08-14T19:28:14.855Z,5.23
2018-08-14T19:33:19.106Z,4.00
2018-08-14T19:38:23.079Z,4.33
2018-08-14T19:43:27.218Z,4.90
2018-08-14T19:48:31.199Z,3.60
2018-08-14T19:53:35.238Z,2.73
2018-08-14T19:58:39.235Z,2.10
2018-08-14T20:03:43.235Z,3.17
2018-08-14T20:08:47.222Z,3.90
2018-08-14T20:13:51.242Z,3.17
2018-08-14T20:18:55.222Z,3.20
2018-08-14T20:23:59.243Z,3.80
2018-08-14T20:29:03.279Z,3.60
2018-08-14T20:34:07.305Z,3.07
2018-08-14T20:39:11.330Z,3.77
2018-08-14T20:44:15.516Z,5.13
2018-08-14T20:49:19.486Z,3.47
2018-08-14T20:54:23.535Z,4.93
2018-08-14T20:59:27.889Z,9.00
2018-08-14T21:04:31.919Z,4.47
2018-08-14T21:09:35.887Z,9.50
2018-08-14T21:14:39.903Z,3.57
2018-08-14T21:19:43.854Z,5.43
2018-08-14T21:24:47.854Z,3.17
2018-08-14T21:29:51.949Z,5.53
2018-08-14T21:34:55.963Z,6.43
2018-08-14T21:40:00.763Z,5.03
2018-08-14T21:45:06.739Z,5.30
2018-08-14T21:50:10.791Z,3.43
2018-08-14T21:55:15.446Z,4.77
2018-08-14T22:00:28.882Z,6.57
2018-08-14T22:05:32.845Z,4.23
2018-08-14T22:10:36.811Z,3.93
2018-08-14T22:15:40.762Z,4.40
2018-08-14T22:20:44.731Z,3.57
2018-08-14T22:25:48.736Z,6.53
2018-08-14T22:30:52.736Z,5.07
2018-08-14T22:35:56.707Z,4.30
2018-08-14T22:41:00.704Z,5.40
2018-08-14T22:46:04.695Z,3.10
2018-08-14T22:51:08.742Z,3.00
2018-08-14T22:56:12.715Z,2.33
2018-08-14T23:01:16.715Z,4.33
2018-08-14T23:06:20.671Z,3.13
2018-08-14T23:11:24.703Z,4.20
2018-08-14T23:16:28.696Z,2.83
2018-08-14T23:21:32.726Z,4.83
2018-08-14T23:26:36.737Z,2.60
2018-08-14T23:31:40.710Z,2.10
2018-08-14T23:36:44.695Z,4.30
2018-08-14T23:41:49.539Z,4.80
2018-08-14T23:46:54.265Z,2.70
2018-08-14T23:51:58.242Z,6.53
2018-08-14T23:57:02.235Z,7.43
